Latest Weather Observations for Geelong Racecourse

IDV60901

Issued at 9:51 am EST Saturday 19 August 2017 (issued every 10 minutes, with the page automatically refreshed every 10 minutes)

About weather observations | Map of Melbourne area stations | Latest observations for Melbourne area | Other Formats
Station Details ID: 087184 Name: GEELONG RACECOURSE Lat: -38.17 Lon: 144.38 Height: 12.9 m
Data from the previous 72 hours. | See also: Recent months at Geelong Racecourse
Date/Time
EST
Temp
°C
App
Temp
°C
Dew
Point
°C
Rel
Hum
%
Delta-T
°C
Wind Press
QNH
hPa
Press
MSL
hPa
Rain since
9am
mm
Dir  Spd
km/h
Gust
km/h
Spd
kts
Gust
kts
19/09:30am 8.8 6.6 7.7 93 0.5 W 9 15 5 8 1026.5 1026.5 0.0
19/09:00am 7.0 5.0 6.1 94 0.4 WNW 6 9 3 5 1026.3 1026.3 7.4
19/08:30am 6.6 3.9 5.6 93 0.4 WNW 9 13 5 7 1025.8 1025.8 7.4
19/08:00am 5.8 2.9 4.8 93 0.4 W 9 15 5 8 1025.3 1025.3 7.2
19/07:30am 6.1 3.3 5.2 94 0.4 SW 9 13 5 7 1024.8 1024.8 7.2
19/07:00am 5.1 2.1 4.2 94 0.4 W 9 13 5 7 1024.2 1024.2 7.2
19/06:30am 5.0 2.0 4.1 94 0.4 W 9 17 5 9 1023.9 1023.9 7.2
19/06:00am 5.3 2.4 4.4 94 0.4 WNW 9 13 5 7 1023.4 1023.4 7.2
19/05:30am 5.7 2.4 4.8 94 0.4 W 11 17 6 9 1023.1 1023.1 7.2
19/05:00am 5.2 2.6 4.3 94 0.4 W 7 11 4 6 1022.6 1022.6 7.2
19/04:30am 5.6 2.7 4.7 94 0.4 WSW 9 24 5 13 1022.7 1022.7 7.2
19/04:00am 5.2 2.8 4.3 94 0.4 WNW 6 9 3 5 1021.9 1021.9 7.2
19/03:30am 5.7 2.8 4.8 94 0.4 W 9 13 5 7 1022.0 1022.0 7.2
19/03:00am 5.7 1.3 4.8 94 0.4 W 17 24 9 13 1021.9 1021.9 7.0
19/02:30am 5.8 2.9 4.9 94 0.4 W 9 13 5 7 1021.9 1021.9 6.8
19/02:00am 6.0 1.1 5.1 94 0.4 W 20 32 11 17 1021.6 1021.6 6.4
19/01:30am 5.9 3.1 5.0 94 0.4 W 9 15 5 8 1021.5 1021.5 5.8
19/01:00am 6.0 2.8 5.1 94 0.4 W 11 20 6 11 1021.4 1021.4 5.8
19/12:30am 5.9 3.6 5.0 94 0.4 W 6 11 3 6 1021.3 1021.3 4.8
19/12:00am 6.4 4.1 5.5 94 0.4 W 7 11 4 6 1021.1 1021.1 4.8
 
Date/Time
EST
Temp
°C
App
Temp
°C
Dew
Point
°C
Rel
Hum
%
Delta-T
°C
Wind Press
QNH
hPa
Press
MSL
hPa
Rain since
9am
mm
Dir  Spd
km/h
Gust
km/h
Spd
kts
Gust
kts
18/11:30pm 6.6 3.2 5.7 94 0.4 SW 13 24 7 13 1021.2 1021.2 4.0
18/11:00pm 6.5 3.8 5.6 94 0.4 WSW 9 15 5 8 1020.6 1020.6 3.4
18/10:30pm 6.6 3.5 5.6 93 0.4 W 11 17 6 9 1020.4 1020.4 2.6
18/10:00pm 6.9 4.2 5.8 93 0.5 WSW 9 17 5 9 1020.1 1020.1 2.6
18/09:30pm 7.1 3.3 6.0 93 0.5 W 15 20 8 11 1019.6 1019.6 2.4
18/09:00pm 7.0 4.0 5.9 93 0.5 W 11 17 6 9 1019.2 1019.2 2.4
18/08:30pm 7.3 3.6 6.2 93 0.5 WSW 15 26 8 14 1019.0 1019.0 2.4
18/08:00pm 7.5 3.8 6.3 92 0.5 W 15 26 8 14 1018.4 1018.4 2.2
18/07:30pm 6.9 4.6 5.8 93 0.5 W 7 9 4 5 1017.9 1017.9 2.2
18/07:00pm 7.2 5.2 6.1 93 0.5 W 6 9 3 5 1017.4 1017.4 2.2
18/06:30pm 7.6 4.7 6.4 92 0.5 SW 11 17 6 9 1017.0 1017.0 2.2
18/06:00pm 8.2 5.4 7.0 92 0.6 W 11 17 6 9 1016.2 1016.2 2.2
18/05:30pm 8.6 5.5 7.4 92 0.6 WSW 13 20 7 11 1015.6 1015.6 2.2
18/05:00pm 8.1 2.4 6.6 90 0.7 SW 26 39 14 21 1015.1 1015.1 2.2
18/04:30pm 10.1 6.6 7.2 82 1.4 WSW 15 24 8 13 1014.5 1014.5 1.8
18/04:00pm 9.9 6.0 7.0 82 1.4 WSW 17 22 9 12 1013.8 1013.8 1.8
18/03:30pm 9.4 4.6 5.8 78 1.6 W 20 32 11 17 1013.2 1013.2 1.8
18/03:00pm 9.5 3.6 6.0 79 1.6 WSW 26 33 14 18 1013.0 1013.0 1.8
18/02:30pm 10.4 4.2 6.2 75 2.0 WSW 28 46 15 25 1012.6 1012.6 1.8
18/02:26pm 10.2 3.9 5.8 74 2.0 WSW 28 46 15 25 1012.6 1012.6 1.8
18/02:00pm 10.1 6.7 9.0 93 0.5 WSW 17 28 9 15 1012.2 1012.2 1.8
18/01:30pm 10.2 5.5 7.6 84 1.2 W 22 41 12 22 1011.7 1011.7 1.6
18/01:00pm 10.1 5.3 7.2 82 1.4 W 22 39 12 21 1011.5 1011.5 1.6
18/12:30pm 8.4 4.5 7.3 93 0.5 W 17 26 9 14 1011.2 1011.2 1.6
18/12:00pm 8.0 3.5 6.9 93 0.5 W 20 30 11 16 1010.9 1010.9 1.4
18/11:30am 8.7 3.6 7.6 93 0.5 W 24 33 13 18 1011.2 1011.2 0.4
18/11:00am 10.0 3.8 7.8 86 1.1 W 30 48 16 26 1010.3 1010.3 0.2
18/10:53am 10.4 4.8 8.8 90 0.8 W 28 48 15 26 1010.0 1010.0 0.2
18/10:30am 9.3 4.3 8.2 93 0.5 W 24 41 13 22 1009.8 1009.8 0.2
18/10:00am 9.4 3.2 7.7 89 0.8 W 30 44 16 24 1009.6 1009.6 0.0
18/09:30am 8.6 4.4 7.5 93 0.5 WNW 19 30 10 16 1009.2 1009.2 0.0
18/09:00am 7.0 1.5 5.9 93 0.5 WNW 24 35 13 19 1008.9 1008.9 3.8
18/08:30am 7.5 1.4 6.4 93 0.5 WNW 28 48 15 26 1007.9 1007.9 3.4
18/08:00am 7.7 1.6 6.6 93 0.5 WNW 28 46 15 25 1007.6 1007.6 3.4
18/07:55am 7.5 1.4 6.4 93 0.5 WNW 28 46 15 25 1007.3 1007.3 3.4
18/07:30am 6.9 1.8 6.0 94 0.4 WNW 22 35 12 19 1007.0 1007.0 3.4
18/07:00am 6.9 1.8 6.0 94 0.4 WNW 22 35 12 19 1006.1 1006.1 3.4
18/06:30am 7.0 1.5 6.1 94 0.4 WNW 24 39 13 21 1006.1 1006.1 3.0
18/06:00am 6.9 1.0 5.8 93 0.5 WNW 26 44 14 24 1005.1 1005.1 3.0
18/05:30am 7.1 1.2 6.0 93 0.5 WNW 26 39 14 21 1004.8 1004.8 2.2
18/05:00am 7.1 2.4 6.0 93 0.5 WNW 20 32 11 17 1004.9 1004.9 1.8
18/04:30am 7.1 3.0 6.0 93 0.5 W 17 26 9 14 1004.9 1004.9 1.4
18/04:00am 7.1 1.6 5.9 92 0.5 WNW 24 35 13 19 1003.7 1003.7 1.4
18/03:30am 7.6 2.8 5.6 87 0.9 W 20 32 11 17 1004.0 1004.0 1.2
18/03:00am 7.7 3.3 4.8 82 1.3 WNW 17 32 9 17 1003.7 1003.7 0.8
18/02:30am 7.8 2.9 5.1 83 1.2 WNW 20 37 11 20 1003.2 1003.2 0.8
18/02:00am 7.8 3.1 5.1 83 1.2 WNW 19 35 10 19 1003.5 1003.5 0.8
18/01:30am 7.7 3.0 5.0 83 1.2 WNW 19 32 10 17 1003.4 1003.4 0.8
18/01:00am 7.7 3.3 5.0 83 1.2 WNW 17 32 9 17 1003.5 1003.5 0.8
18/12:30am 8.1 3.2 5.0 81 1.4 WNW 20 37 11 20 1003.3 1003.3 0.8
18/12:00am 8.5 3.2 4.9 78 1.6 WNW 22 37 12 20 1003.5 1003.5 0.8
 
Date/Time
EST
Temp
°C
App
Temp
°C
Dew
Point
°C
Rel
Hum
%
Delta-T
°C
Wind Press
QNH
hPa
Press
MSL
hPa
Rain since
9am
mm
Dir  Spd
km/h
Gust
km/h
Spd
kts
Gust
kts
17/11:30pm 8.1 3.3 5.6 84 1.1 WNW 20 37 11 20 1003.3 1003.3 0.8
17/11:00pm 7.7 2.7 6.3 91 0.6 WNW 22 30 12 16 1002.8 1002.8 0.8
17/10:30pm 7.5 2.7 5.8 89 0.8 NW 20 32 11 17 1002.6 1002.6 0.8
17/10:00pm 8.0 2.3 5.1 82 1.3 WNW 24 39 13 21 1002.6 1002.6 0.8
17/09:30pm 8.5 2.2 5.6 82 1.3 WNW 28 44 15 24 1002.4 1002.4 0.8
17/09:00pm 8.6 2.6 5.5 81 1.4 WNW 26 43 14 23 1002.4 1002.4 0.8
17/08:30pm 8.1 3.5 6.7 91 0.6 NW 20 30 11 16 1002.6 1002.6 0.8
17/08:00pm 8.1 2.8 6.7 91 0.6 NW 24 39 13 21 1002.1 1002.1 0.8
17/07:30pm 8.1 2.8 6.6 90 0.7 NW 24 30 13 16 1002.2 1002.2 0.8
17/07:00pm 8.6 2.7 5.9 83 1.2 NW 26 35 14 19 1001.9 1001.9 0.8
17/06:30pm 8.7 3.2 7.5 92 0.6 NW 26 41 14 22 1001.9 1001.9 0.8
17/06:00pm 8.4 3.5 7.0 91 0.7 WNW 22 35 12 19 1001.9 1001.9 0.8
17/05:30pm 9.7 3.1 6.1 78 1.7 WNW 30 54 16 29 1001.6 1001.6 0.2
17/05:24pm 9.8 3.2 6.0 77 1.8 WNW 30 50 16 27 1001.3 1001.3 0.2
17/05:00pm 10.5 5.7 5.7 72 2.2 NW 20 33 11 18 1001.0 1001.0 0.2
17/04:30pm 10.9 5.2 5.0 67 2.7 WNW 24 43 13 23 1000.9 1000.9 0.2
17/04:00pm 10.9 5.1 4.4 64 2.9 WNW 24 43 13 23 1000.5 1000.5 0.2
17/03:30pm 12.7 5.8 4.4 57 3.8 WNW 30 48 16 26 1000.2 1000.2 0.2
17/03:00pm 12.9 7.3 5.6 61 3.4 WNW 24 39 13 21 1000.1 1000.1 0.2
17/02:30pm 12.3 6.4 5.7 64 3.1 WNW 26 43 14 23 1000.1 1000.1 0.2
17/02:23pm 13.6 7.1 4.5 54 4.2 WNW 28 46 15 25 999.9 999.9 0.2
17/02:00pm 14.7 7.4 4.4 50 4.8 WNW 32 44 17 24 999.7 999.7 0.2
17/01:30pm 14.8 7.8 3.9 48 5.0 WNW 30 54 16 29 999.8 999.8 0.2
17/01:04pm 14.3 6.8 4.3 51 4.6 WNW 33 52 18 28 999.9 999.9 0.2
17/01:00pm 14.2 6.3 4.2 51 4.6 WNW 35 52 19 28 999.8 999.8 0.2
17/12:46pm 14.5 6.7 5.0 53 4.4 WNW 35 56 19 30 1000.0 1000.0 0.2
17/12:30pm 13.9 5.4 5.0 55 4.1 WNW 39 54 21 29 1000.0 1000.0 0.2
17/12:06pm 13.7 5.2 5.1 56 4.0 WNW 39 63 21 34 999.8 999.8 0.2
17/12:00pm 13.7 5.3 5.8 59 3.8 WNW 39 52 21 28 999.9 999.9 0.2
17/11:39am 13.7 6.6 6.3 61 3.5 NW 33 63 18 34 1000.0 1000.0 0.2
17/11:30am 13.6 6.6 6.9 64 3.2 WNW 33 50 18 27 1000.2 1000.2 0.2
17/11:11am 13.8 7.2 7.6 66 3.0 WNW 32 50 17 27 1000.4 1000.4 0.2
17/11:00am 12.8 5.3 6.4 65 3.1 NW 35 50 19 27 1000.1 1000.1 0.2
17/10:30am 11.5 5.6 7.6 77 1.9 NW 28 46 15 25 1000.4 1000.4 0.2
17/10:00am 10.3 6.2 8.6 89 0.8 NW 20 32 11 17 1000.8 1000.8 0.2
17/09:30am 9.9 5.2 7.8 87 1.0 WNW 22 33 12 18 1001.2 1001.2 0.2
17/09:00am 10.8 4.9 5.6 70 2.4 NW 26 35 14 19 1000.8 1000.8 1.4
17/08:30am 11.1 6.0 5.8 70 2.5 NW 22 35 12 19 1000.5 1000.5 1.4
17/08:00am 11.0 7.5 8.6 85 1.2 NW 17 24 9 13 1000.3 1000.3 1.4
17/07:30am 10.7 8.0 8.8 88 0.9 NW 13 22 7 12 1000.6 1000.6 1.4
17/07:00am 10.7 7.5 8.5 86 1.1 NW 15 26 8 14 1000.5 1000.5 1.4
17/06:30am 10.5 7.0 8.8 89 0.8 NW 17 22 9 12 1000.4 1000.4 1.4
17/06:00am 10.2 6.7 8.6 90 0.8 NW 17 22 9 12 1000.3 1000.3 1.4
17/05:30am 10.4 6.8 8.5 88 0.9 NW 17 26 9 14 1000.4 1000.4 1.4
17/05:00am 10.6 7.0 8.2 85 1.2 NW 17 28 9 15 1000.4 1000.4 1.4
17/04:30am 10.6 7.5 9.0 90 0.8 NW 15 20 8 11 1000.4 1000.4 1.4
17/04:00am 10.9 7.9 9.3 90 0.8 NW 15 20 8 11 1000.4 1000.4 1.4
17/03:30am 10.9 8.2 9.0 88 0.9 WNW 13 22 7 12 1000.6 1000.6 1.4
17/03:00am 11.3 7.4 9.6 89 0.9 NW 20 35 11 19 1000.5 1000.5 1.4
17/02:30am 11.0 7.4 9.8 92 0.6 NW 19 30 10 16 1000.8 1000.8 1.4
17/02:00am 11.2 7.5 10.0 92 0.6 NW 20 33 11 18 1000.6 1000.6 1.4
17/01:30am 11.4 6.9 10.1 92 0.7 WNW 24 44 13 24 1000.9 1000.9 1.4
17/01:00am 11.5 7.4 10.2 92 0.7 NW 22 32 12 17 1000.7 1000.7 1.4
17/12:30am 10.8 7.2 9.7 93 0.6 WNW 19 28 10 15 1001.1 1001.1 1.4
17/12:00am 11.5 7.5 9.1 85 1.2 NW 20 33 11 18 1000.9 1000.9 0.8
 
Date/Time
EST
Temp
°C
App
Temp
°C
Dew
Point
°C
Rel
Hum
%
Delta-T
°C
Wind Press
QNH
hPa
Press
MSL
hPa
Rain since
9am
mm
Dir  Spd
km/h
Gust
km/h
Spd
kts
Gust
kts
16/11:30pm 12.0 7.2 7.3 73 2.3 NW 22 32 12 17 1000.9 1000.9 0.6
16/11:00pm 12.0 6.8 7.1 72 2.4 NNW 24 33 13 18 1000.9 1000.9 0.6
16/10:30pm 12.0 6.1 7.5 74 2.2 NNW 28 43 15 23 1001.0 1001.0 0.6
16/10:00pm 11.9 6.7 7.2 73 2.3 NW 24 32 13 17 1001.3 1001.3 0.6
16/09:30pm 12.0 6.7 6.9 71 2.4 NW 24 37 13 20 1001.5 1001.5 0.6
16/09:00pm 12.2 6.2 7.1 71 2.5 NW 28 41 15 22 1001.5 1001.5 0.6
16/08:30pm 12.4 6.0 7.1 70 2.6 NW 30 50 16 27 1001.1 1001.1 0.6
16/08:01pm 12.7 5.2 6.5 66 3.0 NW 35 57 19 31 1000.7 1000.7 0.6
16/08:00pm 12.7 5.7 6.7 67 2.9 NW 33 46 18 25 1000.8 1000.8 0.6
16/07:33pm 13.0 6.5 6.4 64 3.1 NW 30 50 16 27 1000.5 1000.5 0.6
16/07:30pm 12.9 6.8 6.5 65 3.1 NW 28 41 15 22 1000.6 1000.6 0.6
16/07:00pm 13.0 7.7 6.6 65 3.1 NW 24 33 13 18 1000.6 1000.6 0.6
16/06:30pm 12.8 7.9 6.8 67 2.9 NW 22 35 12 19 1000.3 1000.3 0.6
16/06:00pm 12.8 7.2 7.0 68 2.8 NW 26 39 14 21 1000.0 1000.0 0.6
16/05:30pm 12.9 7.6 6.9 67 2.9 NW 24 37 13 20 999.8 999.8 0.6
16/05:00pm 13.3 7.1 6.2 62 3.4 WNW 28 44 15 24 999.3 999.3 0.6
16/04:35pm 13.8 7.2 5.9 59 3.7 WNW 30 50 16 27 998.8 998.8 0.6
16/04:30pm 13.5 7.9 7.1 65 3.1 WNW 26 44 14 24 998.9 998.9 0.6
16/04:00pm 14.8 7.8 5.9 55 4.3 NW 32 54 17 29 998.4 998.4 0.6
16/03:30pm 15.1 7.2 6.1 55 4.3 WNW 37 65 20 35 998.1 998.1 0.6
16/03:00pm 14.6 7.3 7.2 61 3.7 WNW 35 59 19 32 997.9 997.9 0.6
16/02:34pm 13.8 7.1 8.0 68 2.9 WNW 33 52 18 28 997.9 997.9 0.6
16/02:30pm 13.3 6.5 7.7 69 2.8 WNW 33 52 18 28 997.9 997.9 0.6
16/02:05pm 12.0 6.6 9.6 85 1.2 WNW 28 57 15 31 998.1 998.1 0.4
16/02:00pm 12.0 7.0 9.7 86 1.2 WNW 26 43 14 23 997.6 997.6 0.2
16/01:30pm 14.8 6.2 6.6 58 4.0 NW 41 65 22 35 997.1 997.1 0.0
16/01:00pm 15.4 6.4 6.2 54 4.5 WNW 43 61 23 33 996.9 996.9 0.0
16/12:30pm 15.4 6.2 6.2 54 4.4 WNW 44 72 24 39 996.6 996.6 0.0
16/12:00pm 15.3 7.0 6.3 55 4.4 WNW 39 65 21 35 996.7 996.7 0.0
16/11:30am 14.6 4.7 6.4 58 4.0 WNW 48 78 26 42 996.5 996.5 0.0
16/11:00am 14.2 6.1 7.0 62 3.5 WNW 39 76 21 41 996.2 996.2 0.0
16/10:44am 13.9 5.0 6.7 62 3.5 WNW 43 80 23 43 996.0 996.0 0.0
16/10:30am 13.9 7.0 7.2 64 3.3 WNW 33 52 18 28 996.2 996.2 0.0
16/10:00am 13.2 5.9 7.4 68 2.9 WNW 35 59 19 32 996.2 996.2 0.0

Latest Capital City Observations: Canberra | Sydney | Melbourne | Brisbane | Adelaide | Perth | Hobart | Darwin

Other Formats:

Comma delimited format used in spreadsheet applications
http://www.bom.gov.au/fwo/IDV60901/IDV60901.94857.axf

JavaScript Object Notation format (JSON) in row-major order
http://www.bom.gov.au/fwo/IDV60901/IDV60901.94857.json